Time;durP1;ratioP1;P1;durP2;ratioP2;P2;SDS_P1;SDS_P2;PMS_P1;PMS_P2;Temp;Humidity;BMP_temperature;BMP_pressure;BME280_temperature;BME280_humidity;BME280_pressure;Samples;Min_cycle;Max_cycle;Signal;HPM_P1;HPM_P2
2023/05/17 00:00:19;;;;;;;;;3.00;2.00;;;;;11.53;71.26;100920.09;5079340;28;45467;-71
2023/05/17 00:02:45;;;;;;;;;2.25;2.00;;;;;11.54;71.14;100927.13;5078633;27;45674;-70
2023/05/17 00:05:10;;;;;;;;;1.67;1.33;;;;;11.41;71.26;100904.00;5079400;27;45392;-71
2023/05/17 00:07:36;;;;;;;;;3.75;3.00;;;;;11.30;71.86;100898.41;5078429;28;45331;-71
2023/05/17 00:10:02;;;;;;;;;1.00;1.00;;;;;11.29;72.10;100905.38;5077806;28;46326;-70
2023/05/17 00:12:28;;;;;;;;;1.00;1.00;;;;;11.27;71.76;100909.66;5077823;28;45645;-70
2023/05/17 00:14:53;;;;;;;;;2.00;2.00;;;;;11.21;71.59;100895.50;5078903;28;45222;-71
2023/05/17 00:17:19;;;;;;;;;2.00;1.00;;;;;11.27;71.74;100922.75;5079149;28;45476;-71
2023/05/17 00:19:45;;;;;;;;;1.75;1.50;;;;;11.21;71.99;100899.00;5078690;28;46319;-70
2023/05/17 00:22:10;;;;;;;;;1.00;1.00;;;;;11.15;71.86;100910.16;5078451;27;45506;-70
2023/05/17 00:24:36;;;;;;;;;1.00;1.00;;;;;11.07;71.81;100901.16;5077780;28;45494;-71
2023/05/17 00:27:01;;;;;;;;;2.00;1.50;;;;;10.92;71.86;100878.03;5078235;27;45678;-70
2023/05/17 00:29:27;;;;;;;;;2.25;2.25;;;;;11.07;72.46;100921.19;5062216;28;45600;-70
2023/05/17 00:31:52;;;;;;;;;3.00;2.00;;;;;10.99;71.96;100914.81;5074732;28;45464;-71
2023/05/17 00:34:18;;;;;;;;;1.25;1.25;;;;;10.90;72.58;100916.28;5078643;28;45404;-70
2023/05/17 00:36:43;;;;;;;;;2.50;1.00;;;;;10.81;73.23;100920.31;5079249;27;45269;-70
2023/05/17 00:39:09;;;;;;;;;2.00;2.00;;;;;10.74;73.18;100908.72;5079285;28;45487;-70
2023/05/17 00:41:34;;;;;;;;;1.00;1.00;;;;;10.77;72.87;100915.81;5077872;28;45342;-70
2023/05/17 00:44:00;;;;;;;;;3.00;2.00;;;;;10.58;72.97;100880.28;5078670;28;45341;-71
2023/05/17 00:46:26;;;;;;;;;1.50;1.00;;;;;10.67;72.56;100893.69;5079347;28;45538;-70
2023/05/17 00:48:52;;;;;;;;;1.50;1.00;;;;;10.66;72.22;100894.50;5079204;28;45331;-70
2023/05/17 00:51:19;;;;;;;;;1.50;1.50;;;;;10.69;71.90;100902.47;5079017;28;45227;-70
2023/05/17 00:53:45;;;;;;;;;1.50;1.00;;;;;10.58;72.54;100906.41;5079299;28;45207;-72
2023/05/17 00:56:11;;;;;;;;;2.00;1.00;;;;;10.62;72.84;100923.97;5078238;27;45554;-70
2023/05/17 00:58:39;;;;;;;;;1.50;1.00;;;;;10.60;72.73;100904.75;5078132;28;45588;-71
2023/05/17 01:01:05;;;;;;;;;1.75;1.75;;;;;10.56;72.50;100916.81;5078250;28;45445;-70
2023/05/17 01:03:31;;;;;;;;;2.00;1.00;;;;;10.54;72.17;100906.31;5078076;28;45546;-71
2023/05/17 01:05:56;;;;;;;;;3.00;2.75;;;;;10.41;71.91;100896.25;5078592;28;45394;-71
2023/05/17 01:08:22;;;;;;;;;2.00;2.00;;;;;10.41;72.36;100903.22;5076911;28;47531;-70
2023/05/17 01:11:12;;;;;;;;;2.50;1.75;;;;;10.42;72.87;100911.06;5077652;28;45256;-70
2023/05/17 01:14:07;;;;;;;;;1.00;1.00;;;;;10.40;72.82;100915.34;5078555;27;45646;-70
2023/05/17 01:16:57;;;;;;;;;1.00;1.00;;;;;10.36;72.75;100910.84;5078653;27;45509;-70
2023/05/17 01:19:45;;;;;;;;;2.00;1.00;;;;;10.15;73.41;100914.44;5077590;28;45658;-70
2023/05/17 01:22:29;;;;;;;;;3.25;2.50;;;;;10.03;73.16;100908.75;5078737;28;45595;-74
2023/05/17 01:25:27;;;;;;;;;2.00;2.00;;;;;10.02;74.05;100924.34;5078231;28;45437;-70
2023/05/17 01:27:57;;;;;;;;;3.00;2.75;;;;;9.94;73.95;100922.31;5077879;28;45465;-70
2023/05/17 01:30:25;;;;;;;;;2.75;2.25;;;;;9.82;74.20;100894.88;5077430;28;46300;-70
2023/05/17 01:32:56;;;;;;;;;2.00;2.00;;;;;9.83;73.99;100886.19;5077665;28;45263;-70
2023/05/17 01:35:21;;;;;;;;;2.75;2.75;;;;;9.94;73.81;100908.38;5077186;28;46511;-70
2023/05/17 01:37:47;;;;;;;;;3.00;2.00;;;;;9.95;73.96;100910.19;5077742;28;45498;-70
2023/05/17 01:40:13;;;;;;;;;1.25;1.25;;;;;9.88;73.21;100901.22;5078096;28;46178;-70
2023/05/17 01:42:41;;;;;;;;;2.50;1.75;;;;;9.98;73.27;100919.84;5075773;28;45743;-70
2023/05/17 01:45:30;;;;;;;;;2.00;1.75;;;;;9.96;73.05;100922.38;5078684;28;45344;-70
2023/05/17 01:48:13;;;;;;;;;2.75;2.00;;;;;9.93;72.90;100922.28;5078345;28;45333;-70
2023/05/17 01:50:40;;;;;;;;;2.25;2.25;;;;;9.80;73.69;100906.97;5078189;28;46090;-70
2023/05/17 01:53:09;;;;;;;;;2.50;2.00;;;;;9.81;73.76;100911.34;5076914;28;45429;-70
2023/05/17 01:55:51;;;;;;;;;2.00;1.25;;;;;9.79;74.11;100915.63;5076959;28;45567;-70
2023/05/17 01:58:20;;;;;;;;;3.50;2.00;;;;;9.74;73.77;100913.72;5077458;27;45361;-70
2023/05/17 02:00:48;;;;;;;;;2.00;1.00;;;;;9.64;73.24;100903.75;5076220;28;45627;-70
2023/05/17 02:03:18;;;;;;;;;2.50;2.00;;;;;9.69;73.45;100912.66;5073805;27;45401;-71
2023/05/17 02:05:43;;;;;;;;;2.00;1.00;;;;;9.58;73.20;100893.09;5066052;28;45456;-70
2023/05/17 02:08:09;;;;;;;;;2.25;1.25;;;;;9.66;73.34;100920.34;5076719;28;45616;-73
2023/05/17 02:10:35;;;;;;;;;3.00;3.00;;;;;9.49;73.95;100896.22;5074408;28;45635;-70
2023/05/17 02:13:00;;;;;;;;;2.25;2.25;;;;;9.42;74.08;100893.31;5076971;28;45222;-70
2023/05/17 02:15:26;;;;;;;;;1.25;1.00;;;;;9.38;74.40;100894.91;5077040;28;45414;-70
2023/05/17 02:17:52;;;;;;;;;1.00;1.00;;;;;9.43;73.99;100895.06;5077268;28;45495;-70
2023/05/17 02:20:17;;;;;;;;;1.75;1.50;;;;;9.33;74.40;100901.63;5076444;28;46448;-71
2023/05/17 02:22:43;;;;;;;;;4.00;2.00;;;;;9.21;74.80;100882.88;5077016;28;45528;-71
2023/05/17 02:25:09;;;;;;;;;2.00;2.00;;;;;9.25;74.97;100901.34;5076076;28;45499;-70
2023/05/17 02:27:35;;;;;;;;;1.75;1.00;;;;;9.09;75.14;100878.97;5076939;28;45826;-70
2023/05/17 02:30:01;;;;;;;;;2.50;2.00;;;;;9.27;74.91;100898.78;5076333;28;45642;-71
2023/05/17 02:32:27;;;;;;;;;4.00;3.00;;;;;9.32;74.38;100902.47;5076747;28;45424;-70
2023/05/17 02:34:54;;;;;;;;;2.00;2.00;;;;;9.29;74.24;100898.03;5076644;27;45674;-70
2023/05/17 02:37:19;;;;;;;;;2.25;2.00;;;;;9.22;74.77;100893.38;5060993;28;45453;-70
2023/05/17 02:39:46;;;;;;;;;1.75;1.75;;;;;9.27;74.38;100901.38;5077073;28;45684;-70
2023/05/17 02:42:12;;;;;;;;;2.00;1.50;;;;;9.10;74.84;100891.16;5076678;28;45421;-70
2023/05/17 02:44:37;;;;;;;;;2.25;1.00;;;;;9.22;74.68;100905.53;5075584;28;45626;-70
2023/05/17 02:47:03;;;;;;;;;2.75;2.00;;;;;9.22;74.34;100903.81;5075872;28;45592;-70
2023/05/17 02:49:28;;;;;;;;;1.00;1.00;;;;;9.20;75.02;100899.38;5076545;27;45410;-70
2023/05/17 02:51:54;;;;;;;;;1.25;1.25;;;;;9.11;74.81;100881.63;5076621;28;45507;-70
2023/05/17 02:54:20;;;;;;;;;3.50;2.75;;;;;9.24;74.78;100901.28;5075921;28;45559;-70
2023/05/17 02:56:46;;;;;;;;;4.25;3.00;;;;;9.33;74.35;100912.97;5076880;28;45473;-70
2023/05/17 02:59:11;;;;;;;;;4.00;3.00;;;;;9.27;73.99;100902.28;5076350;28;46452;-70
2023/05/17 03:01:37;;;;;;;;;3.75;3.00;;;;;9.27;74.05;100901.38;5076132;28;45381;-70
2023/05/17 03:04:02;;;;;;;;;2.00;2.00;;;;;9.24;73.81;100896.94;5077562;28;45285;-71
2023/05/17 03:06:28;;;;;;;;;2.00;2.00;;;;;9.27;73.44;100891.88;5075630;28;45631;-70
2023/05/17 03:08:53;;;;;;;;;3.50;3.00;;;;;9.22;74.31;100916.84;5079691;27;46621;-71
2023/05/17 03:11:19;;;;;;;;;2.00;2.00;;;;;9.21;73.69;100899.44;5080002;28;45468;-70
2023/05/17 03:13:51;;;;;;;;;2.25;1.75;;;;;9.25;73.28;100908.25;5080632;28;45212;-70
2023/05/17 03:16:18;;;;;;;;;3.50;2.00;;;;;9.22;73.40;100903.81;5081313;27;45238;-70
2023/05/17 03:18:44;;;;;;;;;2.25;2.00;;;;;9.25;73.72;100911.78;5078766;28;45672;-70
2023/05/17 03:21:09;;;;;;;;;2.50;2.50;;;;;9.25;73.09;100908.25;5079384;28;45716;-70
2023/05/17 03:23:35;;;;;;;;;1.75;1.00;;;;;9.14;73.51;100897.41;5079938;28;45485;-70
2023/05/17 03:26:01;;;;;;;;;2.00;2.00;;;;;9.15;73.71;100900.06;5079561;28;45477;-70
2023/05/17 03:28:26;;;;;;;;;2.00;2.00;;;;;9.24;73.44;100914.31;5079449;28;46592;-70
2023/05/17 03:30:52;;;;;;;;;1.75;1.00;;;;;9.07;74.20;100884.94;5079491;28;45495;-70
2023/05/17 03:33:18;;;;;;;;;2.00;2.00;;;;;9.12;74.20;100899.06;5075299;28;45761;-72
2023/05/17 03:35:45;;;;;;;;;1.50;1.00;;;;;9.18;73.83;100906.25;5061932;28;45505;-70
2023/05/17 03:38:11;;;;;;;;;2.75;2.00;;;;;9.10;73.38;100887.69;5079633;28;45572;-70
2023/05/17 03:40:37;;;;;;;;;2.00;2.00;;;;;9.16;73.93;100911.38;5079739;28;45567;-70
2023/05/17 03:43:03;;;;;;;;;1.75;1.75;;;;;9.02;73.99;100899.50;5079396;28;45415;-70
2023/05/17 03:45:28;;;;;;;;;2.75;2.75;;;;;8.84;74.33;100871.84;5079179;28;45353;-70
2023/05/17 03:47:54;;;;;;;;;1.50;1.50;;;;;9.06;73.81;100911.84;5079516;28;45276;-70
2023/05/17 03:50:19;;;;;;;;;3.50;3.00;;;;;8.93;74.85;100903.50;5079655;28;45409;-70
2023/05/17 03:52:45;;;;;;;;;2.50;2.00;;;;;9.00;74.11;100911.56;5079674;28;45447;-70
2023/05/17 03:55:11;;;;;;;;;2.00;2.00;;;;;8.73;74.03;100868.78;5078654;28;45523;-72
2023/05/17 03:57:36;;;;;;;;;2.00;2.00;;;;;8.91;73.81;100899.94;5079265;28;45497;-70
2023/05/17 04:00:06;;;;;;;;;3.75;3.00;;;;;8.95;73.93;100925.31;5079022;28;45640;-70
2023/05/17 04:02:31;;;;;;;;;2.00;2.00;;;;;8.88;74.77;100902.41;5075008;28;45453;-70
2023/05/17 04:04:57;;;;;;;;;3.00;3.00;;;;;8.84;74.18;100897.00;5076524;28;45491;-70
2023/05/17 04:07:22;;;;;;;;;3.75;2.25;;;;;8.89;74.40;100917.22;5077343;28;46769;-70
2023/05/17 04:09:48;;;;;;;;;2.00;1.00;;;;;8.72;74.68;100890.44;5079607;28;45523;-70
2023/05/17 04:12:13;;;;;;;;;2.75;2.00;;;;;8.75;74.11;100894.88;5077636;28;45448;-72
2023/05/17 04:14:40;;;;;;;;;2.75;2.75;;;;;8.76;74.43;100907.09;5078308;27;45483;-70
2023/05/17 04:17:05;;;;;;;;;2.00;1.25;;;;;8.74;74.20;100898.34;5078950;28;45564;-70
2023/05/17 04:19:31;;;;;;;;;3.75;2.75;;;;;8.71;74.13;100906.00;5077863;28;45401;-72
2023/05/17 04:21:56;;;;;;;;;3.00;3.00;;;;;8.67;74.52;100915.38;5064785;28;45554;-73
2023/05/17 04:24:22;;;;;;;;;5.25;2.75;;;;;8.68;74.44;100916.31;5076391;28;45483;-70
2023/05/17 04:26:47;;;;;;;;;4.00;3.00;;;;;8.52;74.57;100905.19;5078805;28;46308;-70
2023/05/17 04:29:13;;;;;;;;;3.00;3.00;;;;;8.55;75.22;100925.28;5078796;28;45538;-70
2023/05/17 04:31:38;;;;;;;;;3.00;3.00;;;;;8.39;75.00;100920.19;5079250;28;45948;-70
2023/05/17 04:34:04;;;;;;;;;4.75;2.75;;;;;8.29;75.45;100900.66;5076791;28;45611;-70
2023/05/17 04:36:29;;;;;;;;;3.50;3.50;;;;;8.40;75.65;100928.06;5078814;28;45565;-70
2023/05/17 04:38:55;;;;;;;;;5.25;5.25;;;;;8.39;75.54;100928.88;5078739;27;45367;-70
2023/05/17 04:41:21;;;;;;;;;4.00;4.00;;;;;8.20;75.99;100902.84;5079584;28;45444;-70
2023/05/17 04:43:46;;;;;;;;;5.75;3.00;;;;;8.35;75.62;100917.44;5078335;28;45345;-70
2023/05/17 04:46:12;;;;;;;;;6.00;4.25;;;;;8.29;75.58;100900.66;5058818;28;45326;-70
2023/05/17 04:48:37;;;;;;;;;4.00;3.00;;;;;8.37;75.40;100901.88;5074049;28;45933;-70
2023/05/17 04:51:04;;;;;;;;;3.75;3.00;;;;;8.49;75.33;100915.47;5077698;28;45468;-70
2023/05/17 04:53:30;;;;;;;;;3.75;3.00;;;;;8.69;74.54;100947.59;5076928;28;45722;-70
2023/05/17 04:55:56;;;;;;;;;3.50;3.00;;;;;8.69;74.01;100945.00;5077315;27;45333;-70
2023/05/17 04:58:23;;;;;;;;;7.00;4.00;;;;;8.68;73.92;100929.31;5076379;28;45243;-70
2023/05/17 05:00:49;;;;;;;;;3.50;3.50;;;;;8.69;74.11;100918.06;5073033;27;45428;-70
2023/05/17 05:03:15;;;;;;;;;2.75;2.75;;;;;8.91;74.12;100952.06;5057256;28;45537;-70
2023/05/17 05:05:40;;;;;;;;;1.75;1.00;;;;;8.93;73.45;100942.59;5074996;28;45870;-69
2023/05/17 05:08:08;;;;;;;;;5.50;4.00;;;;;8.88;73.24;100910.22;5076957;28;45455;-70
2023/05/17 05:10:33;;;;;;;;;3.00;3.00;;;;;9.15;72.92;100946.06;5077066;28;45305;-70
2023/05/17 05:12:59;;;;;;;;;3.25;3.25;;;;;9.31;72.18;100966.78;5076630;28;45610;-70
2023/05/17 05:15:24;;;;;;;;;4.00;3.00;;;;;9.27;72.87;100949.22;5078010;28;46547;-72
2023/05/17 05:17:50;;;;;;;;;4.00;2.00;;;;;9.36;72.71;100957.41;5072306;28;45339;-70
2023/05/17 05:20:16;;;;;;;;;4.00;3.00;;;;;9.44;72.04;100954.25;5066775;28;45525;-69
2023/05/17 05:22:41;;;;;;;;;4.75;4.00;;;;;9.58;72.09;100971.34;5078490;28;45409;-70
2023/05/17 05:25:08;;;;;;;;;2.00;2.00;;;;;9.40;72.09;100954.94;5077136;28;45503;-70
2023/05/17 05:27:34;;;;;;;;;4.75;3.75;;;;;9.45;71.85;100962.13;5077860;28;45426;-71
2023/05/17 05:30:00;;;;;;;;;2.75;2.75;;;;;9.45;72.05;100977.78;5077791;28;45354;-70
2023/05/17 05:32:26;;;;;;;;;3.00;3.00;;;;;9.53;71.68;100980.72;5077073;28;45575;-70
2023/05/17 05:34:52;;;;;;;;;3.50;3.00;;;;;9.51;71.38;100972.81;5075792;28;45740;-69
2023/05/17 05:37:18;;;;;;;;;3.00;3.00;;;;;9.73;71.04;100986.72;5077613;28;45374;-69
2023/05/17 05:39:44;;;;;;;;;5.75;4.00;;;;;9.69;70.88;100977.00;5077743;27;45429;-70
2023/05/17 05:42:10;;;;;;;;;3.00;2.00;;;;;9.73;71.12;100973.69;5077647;28;45370;-69
2023/05/17 05:44:36;;;;;;;;;4.50;4.00;;;;;9.29;70.94;100866.75;5076258;27;46103;-68
2023/05/17 05:47:01;;;;;;;;;8.00;5.00;;;;;10.14;70.32;100983.13;5077772;28;45453;-69
2023/05/17 05:49:27;;;;;;;;;3.25;2.75;;;;;10.22;70.18;100977.31;5077726;27;45409;-69
2023/05/17 05:51:52;;;;;;;;;8.00;5.00;;;;;10.45;69.69;100994.78;5077098;27;45467;-69
2023/05/17 05:54:18;;;;;;;;;4.25;4.00;;;;;10.58;69.72;100998.72;5069921;28;47732;-69
2023/05/17 05:56:44;;;;;;;;;2.75;2.25;;;;;10.47;69.21;100955.66;5088811;27;45509;-69
2023/05/17 05:59:10;;;;;;;;;4.50;3.75;;;;;10.65;69.13;100978.97;5071314;28;45374;-70
2023/05/17 06:01:36;;;;;;;;;20.00;17.75;;;;;10.80;68.86;100992.56;5077183;28;45494;-69
2023/05/17 06:04:02;;;;;;;;;8.25;5.75;;;;;11.07;68.81;101003.13;5076325;28;45527;-69
2023/05/17 06:06:27;;;;;;;;;8.00;6.25;;;;;11.18;67.75;100989.53;5074459;28;45538;-69
2023/05/17 06:08:53;;;;;;;;;6.75;4.75;;;;;13.16;64.88;100990.38;5076965;27;45454;-69
2023/05/17 06:11:20;;;;;;;;;27.00;25.25;;;;;15.86;56.96;100991.75;5077128;27;45508;-69
2023/05/17 06:13:45;;;;;;;;;15.50;15.25;;;;;17.77;52.35;100989.56;5063101;28;45511;-69
2023/05/17 06:16:11;;;;;;;;;21.25;20.25;;;;;19.25;50.79;100979.69;5072494;28;45635;-70
2023/05/17 06:18:37;;;;;;;;;16.50;16.50;;;;;20.62;45.35;100982.19;5076889;28;45294;-69
2023/05/17 06:21:03;;;;;;;;;9.33;8.33;;;;;21.57;43.55;100970.97;5077731;28;45417;-69
2023/05/17 06:23:28;;;;;;;;;10.33;7.00;;;;;22.71;41.77;100974.19;5076853;28;45456;-69
2023/05/17 06:25:54;;;;;;;;;4.67;4.33;;;;;23.38;40.72;100967.03;5076704;28;45565;-70
2023/05/17 06:28:20;;;;;;;;;6.00;5.33;;;;;24.09;39.36;100963.13;5076230;28;45402;-69
2023/05/17 06:30:46;;;;;;;;;4.00;4.00;;;;;24.88;36.24;100976.63;5070495;28;45513;-69
2023/05/17 06:33:11;;;;;;;;;5.67;5.33;;;;;25.49;35.46;100966.31;5074379;28;46187;-69
2023/05/17 06:35:37;;;;;;;;;5.00;5.00;;;;;25.82;34.70;100963.66;5069116;28;45546;-70
2023/05/17 06:38:03;;;;;;;;;6.00;6.00;;;;;26.12;33.96;100971.81;5067302;28;46046;-69
2023/05/17 06:40:28;;;;;;;;;4.67;4.00;;;;;26.71;33.82;100966.56;5077109;27;45453;-70
2023/05/17 06:42:54;;;;;;;;;5.33;4.00;;;;;27.41;32.06;100967.94;5074851;28;46383;-69
2023/05/17 06:45:20;;;;;;;;;4.00;4.00;;;;;28.30;31.28;100972.91;5076583;28;45562;-70
2023/05/17 06:47:46;;;;;;;;;5.00;5.00;;;;;28.79;30.86;100953.16;5076744;28;45720;-71
2023/05/17 06:50:11;;;;;;;;;5.67;4.33;;;;;29.31;29.28;100964.56;5077026;28;45487;-71
2023/05/17 06:52:37;;;;;;;;;6.33;5.67;;;;;29.69;28.11;100976.38;5076613;28;45405;-71
2023/05/17 06:55:03;;;;;;;;;4.00;4.00;;;;;30.30;28.11;100986.34;5088657;27;45735;-70
2023/05/17 06:57:28;;;;;;;;;4.00;4.00;;;;;30.75;27.74;100964.53;5074050;28;45439;-73
2023/05/17 06:59:54;;;;;;;;;4.00;3.67;;;;;31.25;27.64;100972.00;5076458;28;46250;-71
2023/05/17 07:02:19;;;;;;;;;4.67;4.67;;;;;31.90;25.66;100981.28;5075924;28;46457;-71
2023/05/17 07:04:45;;;;;;;;;2.00;1.00;;;;;32.01;25.95;100982.56;5076053;28;45373;-71
2023/05/17 07:07:11;;;;;;;;;5.67;4.67;;;;;32.12;24.87;100985.59;5076377;28;45350;-71
2023/05/17 07:09:36;;;;;;;;;4.00;4.00;;;;;32.57;24.88;100986.81;5075185;28;45601;-71
2023/05/17 07:12:04;;;;;;;;;7.33;6.67;;;;;32.95;24.83;101001.81;5074329;28;46114;-71
2023/05/17 07:14:29;;;;;;;;;3.00;3.00;;;;;33.03;24.55;100984.19;5070865;28;45532;-70
2023/05/17 07:16:55;;;;;;;;;4.67;3.00;;;;;32.96;23.52;100982.78;5064331;28;45494;-70
2023/05/17 07:19:20;;;;;;;;;5.33;5.33;;;;;33.01;24.57;101001.50;5062967;28;45451;-71
2023/05/17 07:21:46;;;;;;;;;2.33;2.33;;;;;33.40;23.43;100992.03;5071439;28;47646;-71
2023/05/17 07:24:11;;;;;;;;;5.00;3.33;;;;;33.72;23.60;100992.88;5054922;28;45585;-71
2023/05/17 07:26:37;;;;;;;;;3.00;2.67;;;;;34.36;23.45;100995.31;5063265;28;45550;-75
2023/05/17 07:29:02;;;;;;;;;4.00;3.00;;;;;34.85;22.19;100994.94;5075859;27;45460;-73
2023/05/17 07:31:28;;;;;;;;;3.00;2.33;;;;;34.80;22.00;101000.69;5072069;28;45707;-71
2023/05/17 07:33:53;;;;;;;;;4.00;3.50;;;;;35.02;21.00;100992.00;5074367;27;45909;-70
2023/05/17 07:36:19;;;;;;;;;2.00;1.33;;;;;35.52;21.21;100986.03;5073987;28;45537;-71
2023/05/17 07:38:44;;;;;;;;;3.00;3.00;;;;;35.78;20.39;100990.56;5075765;27;45576;-71
2023/05/17 07:41:12;;;;;;;;;2.67;2.00;;;;;35.79;20.38;100988.72;5075834;28;45536;-71
2023/05/17 07:43:38;;;;;;;;;4.00;3.00;;;;;35.83;19.87;100985.69;5074600;27;45258;-71
2023/05/17 07:46:04;;;;;;;;;2.67;2.67;;;;;35.93;20.12;100985.03;5074317;28;45499;-71
2023/05/17 07:48:30;;;;;;;;;0.00;0.00;;;;;36.16;19.53;100989.75;5076180;28;45242;-71
2023/05/17 07:50:56;;;;;;;;;2.33;1.67;;;;;36.33;19.40;100974.97;5075477;28;45374;-71
2023/05/17 07:53:21;;;;;;;;;2.00;2.00;;;;;36.56;19.19;100976.00;5075911;28;45570;-70
2023/05/17 07:55:47;;;;;;;;;1.00;1.00;;;;;36.64;18.77;100980.94;5078060;28;45527;-71
2023/05/17 07:58:12;;;;;;;;;1.67;1.67;;;;;36.73;20.02;100982.09;5078954;28;45499;-71
2023/05/17 08:00:38;;;;;;;;;1.00;1.00;;;;;36.94;19.57;100980.53;5078677;28;45689;-71
2023/05/17 08:03:04;;;;;;;;;2.33;1.67;;;;;36.88;18.26;100980.97;5077760;28;45539;-71
2023/05/17 08:05:29;;;;;;;;;1.33;1.00;;;;;36.39;19.01;100971.81;5079040;28;45451;-71
2023/05/17 08:07:58;;;;;;;;;1.67;1.00;;;;;36.54;19.45;100966.22;5078939;28;45532;-71
2023/05/17 08:10:25;;;;;;;;;1.00;1.00;;;;;36.59;18.68;100970.38;5078997;28;45371;-70
2023/05/17 08:12:50;;;;;;;;;1.00;1.00;;;;;37.03;19.43;100974.41;5077638;28;45702;-71
2023/05/17 08:15:16;;;;;;;;;2.00;1.00;;;;;37.10;18.87;100957.59;5078031;28;45369;-73
2023/05/17 08:17:41;;;;;;;;;2.67;1.67;;;;;37.27;17.87;100965.38;5078239;28;45543;-71
2023/05/17 08:20:08;;;;;;;;;1.00;1.00;;;;;37.25;17.94;100959.19;5078545;28;46445;-71
2023/05/17 08:22:35;;;;;;;;;3.33;2.67;;;;;37.21;17.50;100955.81;5078109;28;45277;-71
2023/05/17 08:25:01;;;;;;;;;2.33;2.33;;;;;36.88;17.64;100937.41;5078972;27;45616;-73
2023/05/17 08:27:29;;;;;;;;;3.00;2.67;;;;;36.44;17.39;100912.47;5077320;28;45468;-71
2023/05/17 08:29:56;;;;;;;;;1.00;1.00;;;;;36.92;17.84;100959.84;5077887;27;45323;-71
2023/05/17 08:32:26;;;;;;;;;1.33;1.33;;;;;37.21;16.87;100955.81;5078375;27;45500;-71
2023/05/17 08:34:51;;;;;;;;;1.00;0.67;;;;;37.42;17.25;100947.88;5078514;28;45492;-71
2023/05/17 08:37:17;;;;;;;;;1.00;1.00;;;;;37.34;17.38;100965.78;5078871;28;45667;-71
2023/05/17 08:39:43;;;;;;;;;2.00;1.00;;;;;37.54;17.40;100945.16;5077288;28;45557;-71
2023/05/17 08:42:08;;;;;;;;;2.00;2.00;;;;;37.34;16.71;100955.75;5076766;28;45471;-73
2023/05/17 08:44:35;;;;;;;;;2.67;2.00;;;;;37.29;17.42;100955.25;5078587;27;45380;-72
2023/05/17 08:47:02;;;;;;;;;11.67;11.00;;;;;36.82;17.65;100962.38;5076152;28;45361;-71
2023/05/17 08:49:32;;;;;;;;;2.00;1.33;;;;;36.29;18.04;100950.81;5077891;28;46419;-71
2023/05/17 08:52:00;;;;;;;;;0.33;0.33;;;;;36.23;17.85;100944.84;5076730;28;45476;-70
2023/05/17 08:54:26;;;;;;;;;2.67;2.33;;;;;36.31;18.64;100948.84;5077718;28;45457;-71
2023/05/17 08:56:59;;;;;;;;;2.00;2.00;;;;;36.07;18.26;100960.47;5072914;28;45570;-71
2023/05/17 08:59:26;;;;;;;;;7.00;4.67;;;;;35.84;18.72;100943.94;5074711;28;47010;-71
2023/05/17 09:01:53;;;;;;;;;1.33;1.00;;;;;35.60;17.34;100951.91;5077549;28;45579;-71
2023/05/17 09:04:20;;;;;;;;;3.00;1.67;;;;;34.74;18.98;100960.38;5078485;28;45493;-70
2023/05/17 09:06:45;;;;;;;;;2.33;1.67;;;;;34.94;18.99;100945.50;5077046;28;45362;-71
2023/05/17 09:09:12;;;;;;;;;1.00;1.00;;;;;34.96;19.26;100938.09;5077433;28;46159;-70
2023/05/17 09:11:38;;;;;;;;;3.33;3.00;;;;;35.17;18.84;100946.69;5077788;28;45409;-71
2023/05/17 09:14:05;;;;;;;;;3.67;2.00;;;;;34.18;18.70;100943.13;5073041;28;45446;-70
2023/05/17 09:16:33;;;;;;;;;3.00;2.67;;;;;34.11;19.65;100942.59;5072686;28;45544;-74
2023/05/17 09:19:02;;;;;;;;;2.00;2.00;;;;;34.12;19.54;100951.59;5077217;28;45629;-70
2023/05/17 09:21:30;;;;;;;;;2.67;1.33;;;;;34.16;19.75;100958.63;5077761;28;45719;-72
2023/05/17 09:24:00;;;;;;;;;3.33;2.67;;;;;34.04;19.77;100955.69;5075414;28;45317;-70
2023/05/17 09:26:37;;;;;;;;;3.67;1.67;;;;;32.47;20.54;100955.75;5077607;27;45168;-74
2023/05/17 09:29:07;;;;;;;;;2.00;1.33;;;;;31.24;21.44;100954.94;5076780;28;46451;-71
2023/05/17 09:31:33;;;;;;;;;2.00;2.00;;;;;30.65;22.20;100940.69;5077474;28;45468;-70
2023/05/17 09:33:58;;;;;;;;;3.00;2.00;;;;;30.93;22.43;100947.47;5077561;28;45380;-71
2023/05/17 09:36:24;;;;;;;;;0.67;0.67;;;;;31.03;22.53;100942.50;5077189;28;45345;-71
2023/05/17 09:39:04;;;;;;;;;1.00;1.00;;;;;31.01;21.16;100950.66;5077312;28;46409;-70
2023/05/17 09:41:31;;;;;;;;;1.00;1.00;;;;;30.43;21.40;100964.22;5076990;28;45250;-71
2023/05/17 09:44:01;;;;;;;;;2.00;1.00;;;;;30.35;22.81;100964.56;5077744;28;45339;-71
2023/05/17 09:46:32;;;;;;;;;1.33;1.33;;;;;30.48;22.56;100954.06;5077065;28;45599;-71
2023/05/17 09:49:00;;;;;;;;;1.67;1.00;;;;;31.10;22.53;100949.34;5076949;27;45434;-70
2023/05/17 09:51:38;;;;;;;;;1.33;1.33;;;;;31.36;21.68;100948.03;5077315;28;45448;-71
2023/05/17 09:54:09;;;;;;;;;2.00;2.00;;;;;30.20;22.11;100958.03;5076461;28;45523;-71
2023/05/17 09:56:35;;;;;;;;;3.00;2.00;;;;;30.11;22.63;100953.06;5070812;28;45692;-70
2023/05/17 09:59:01;;;;;;;;;2.00;1.67;;;;;29.79;23.03;100952.66;5066532;28;46472;-72
2023/05/17 10:01:29;;;;;;;;;2.00;1.00;;;;;30.09;22.63;100941.47;5076573;28;45458;-72
2023/05/17 10:04:00;;;;;;;;;2.00;1.67;;;;;30.11;22.63;100937.75;5075753;28;45636;-71
2023/05/17 10:06:28;;;;;;;;;1.67;1.67;;;;;29.70;22.26;100931.47;5075572;28;45638;-71
2023/05/17 10:08:56;;;;;;;;;0.00;0.00;;;;;29.10;22.01;100950.13;5076606;28;46276;-71
2023/05/17 10:11:27;;;;;;;;;1.67;1.33;;;;;27.81;22.79;100945.09;5076846;27;45518;-70
2023/05/17 10:14:10;;;;;;;;;1.00;1.00;;;;;27.15;23.29;100948.19;5058836;28;45486;-70
2023/05/17 10:16:38;;;;;;;;;1.00;1.00;;;;;26.96;24.40;100945.25;5075478;27;45457;-71
2023/05/17 10:19:03;;;;;;;;;3.00;2.00;;;;;27.09;25.71;100951.06;5075874;27;45503;-70
2023/05/17 10:21:31;;;;;;;;;2.00;2.00;;;;;27.24;25.25;100932.75;5074078;28;45716;-71
2023/05/17 10:24:00;;;;;;;;;2.00;2.00;;;;;27.90;23.98;100938.56;5074528;28;45479;-71
2023/05/17 10:26:27;;;;;;;;;1.33;1.00;;;;;28.30;25.22;100919.16;5076111;28;45409;-71
2023/05/17 10:29:01;;;;;;;;;3.33;3.00;;;;;28.57;24.44;100937.91;5074780;28;45356;-70
2023/05/17 10:31:30;;;;;;;;;2.00;2.00;;;;;28.29;21.83;100929.97;5074113;28;45537;-71
2023/05/17 10:33:57;;;;;;;;;2.67;1.67;;;;;27.63;23.43;100913.53;5076236;28;45463;-71
2023/05/17 10:36:24;;;;;;;;;1.67;1.00;;;;;26.86;24.03;100932.16;5076516;28;45571;-73
2023/05/17 10:38:50;;;;;;;;;0.33;0.33;;;;;26.41;22.76;100949.56;5075913;28;46232;-72
2023/05/17 10:41:18;;;;;;;;;2.33;2.00;;;;;26.39;24.19;100938.88;5074204;28;45595;-72
2023/05/17 10:43:45;;;;;;;;;4.67;3.00;;;;;26.17;25.27;100911.84;5070728;28;45390;-70
2023/05/17 10:46:15;;;;;;;;;3.00;2.00;;;;;26.39;25.84;100920.13;5076537;28;45194;-70
2023/05/17 10:48:42;;;;;;;;;3.67;3.00;;;;;26.28;26.36;100916.94;5075378;27;45463;-70
2023/05/17 10:51:08;;;;;;;;;2.00;2.00;;;;;26.43;24.57;100923.63;5076098;28;45597;-70
2023/05/17 10:54:03;;;;;;;;;2.00;2.00;;;;;25.88;23.98;100931.38;5076631;28;45322;-70
2023/05/17 10:56:33;;;;;;;;;3.00;3.00;;;;;25.59;24.68;100926.84;5075185;27;45416;-70
2023/05/17 10:59:23;;;;;;;;;3.00;2.33;;;;;25.77;25.79;100936.16;5075524;28;45503;-70
2023/05/17 11:01:52;;;;;;;;;3.00;3.00;;;;;25.08;26.44;100929.88;5076159;27;45931;-72
2023/05/17 11:04:41;;;;;;;;;2.33;2.00;;;;;25.38;27.11;100929.13;5076462;28;45267;-70
2023/05/17 11:07:16;;;;;;;;;4.00;4.00;;;;;25.66;27.25;100924.88;5062163;28;45687;-70
2023/05/17 11:10:07;;;;;;;;;2.33;2.33;;;;;24.76;26.45;100912.78;5071571;28;45849;-70
2023/05/17 11:12:41;;;;;;;;;6.00;3.00;;;;;23.96;27.54;100907.31;5073797;28;45348;-70
2023/05/17 11:15:12;;;;;;;;;2.33;2.33;;;;;23.38;29.42;100921.72;5074317;28;45627;-70
2023/05/17 11:17:45;;;;;;;;;3.67;3.00;;;;;23.02;29.35;100926.72;5075205;28;45519;-70
2023/05/17 11:20:29;;;;;;;;;6.00;5.67;;;;;22.29;30.81;100934.78;5075505;28;46202;-70
2023/05/17 11:22:59;;;;;;;;;4.33;4.00;;;;;21.97;31.67;100932.47;5074689;28;45514;-69
2023/05/17 11:25:34;;;;;;;;;3.00;3.00;;;;;21.32;31.38;100897.63;5074493;28;45483;-69
2023/05/17 11:28:05;;;;;;;;;4.00;4.00;;;;;21.15;31.43;100908.38;5075984;28;45322;-69